Time;durP1;ratioP1;P1;durP2;ratioP2;P2;SDS_P1;SDS_P2;PMS_P1;PMS_P2;Temp;Humidity;BMP_temperature;BMP_pressure;BME280_temperature;BME280_humidity;BME280_pressure;Samples;Min_cycle;Max_cycle;Signal;HPM_P1;HPM_P2
2022/05/17 00:01:14;;;;;;;4.28;2.33;;;20.60;67.70;;;;;;5073960;28;20104;-75
2022/05/17 00:03:40;;;;;;;7.70;2.42;;;20.60;67.30;;;;;;5055833;28;20031;-75
2022/05/17 00:06:06;;;;;;;7.13;2.28;;;20.50;67.40;;;;;;5056194;28;20017;-77
2022/05/17 00:08:33;;;;;;;5.72;1.90;;;20.50;67.40;;;;;;5035915;28;20510;-75
2022/05/17 00:10:59;;;;;;;3.95;2.30;;;20.50;67.50;;;;;;5053709;28;20564;-77
2022/05/17 00:13:24;;;;;;;3.45;2.00;;;20.50;67.70;;;;;;5035767;28;20129;-76
2022/05/17 00:15:54;;;;;;;3.88;2.22;;;20.50;68.20;;;;;;5035699;28;20024;-76
2022/05/17 00:18:22;;;;;;;8.05;2.10;;;20.50;67.50;;;;;;5053560;28;20106;-77
2022/05/17 00:20:48;;;;;;;2.70;1.65;;;20.40;67.30;;;;;;5053529;28;20491;-76
2022/05/17 00:23:17;;;;;;;3.38;2.05;;;20.40;67.30;;;;;;5053890;28;20021;-75
2022/05/17 00:25:47;;;;;;;4.15;1.92;;;20.40;67.40;;;;;;5056524;28;20019;-75
2022/05/17 00:28:19;;;;;;;9.63;2.15;;;20.40;67.60;;;;;;5035699;28;20393;-76
2022/05/17 00:30:46;;;;;;;5.30;2.38;;;20.40;67.80;;;;;;5053526;28;20013;-76
2022/05/17 00:33:12;;;;;;;3.63;1.88;;;20.30;67.40;;;;;;5035841;28;20025;-75
2022/05/17 00:35:38;;;;;;;4.38;2.63;;;20.30;67.50;;;;;;5053107;28;20029;-76
2022/05/17 00:38:04;;;;;;;2.45;1.65;;;20.30;67.50;;;;;;5053710;28;20021;-75
2022/05/17 00:40:30;;;;;;;7.57;2.60;;;20.30;67.60;;;;;;5073015;28;20028;-75
2022/05/17 00:42:55;;;;;;;3.53;2.47;;;20.30;67.50;;;;;;5073062;28;20024;-76
2022/05/17 00:45:21;;;;;;;5.90;2.22;;;20.20;67.10;;;;;;5073041;28;20027;-75
2022/05/17 00:48:04;;;;;;;4.28;2.28;;;20.20;66.90;;;;;;5055450;28;20034;-75
2022/05/17 00:50:43;;;;;;;3.38;1.88;;;20.10;66.80;;;;;;5070034;28;20042;-76
2022/05/17 00:53:33;;;;;;;5.40;2.22;;;20.10;67.20;;;;;;5064979;28;20009;-76
2022/05/17 00:56:02;;;;;;;5.70;1.85;;;20.10;67.40;;;;;;5069745;28;20520;-76
2022/05/17 00:58:37;;;;;;;3.33;2.15;;;20.00;67.20;;;;;;5072672;28;20055;-76
2022/05/17 01:01:19;;;;;;;2.20;1.40;;;20.00;67.30;;;;;;5054929;28;20115;-76
2022/05/17 01:03:56;;;;;;;5.90;1.77;;;19.90;67.40;;;;;;5072622;28;20462;-75
2022/05/17 01:06:27;;;;;;;2.75;1.80;;;20.00;68.00;;;;;;5052565;28;20029;-76
2022/05/17 01:08:53;;;;;;;5.85;1.92;;;20.00;68.30;;;;;;5052525;28;20019;-76
2022/05/17 01:11:19;;;;;;;5.18;2.03;;;19.90;68.40;;;;;;5052462;28;20059;-75
2022/05/17 01:16:30;;;;;;;3.25;2.10;;;19.90;68.20;;;;;;5062505;28;20349;-75
2022/05/17 01:18:56;;;;;;;4.00;2.25;;;20.00;68.30;;;;;;5072238;28;20095;-75
2022/05/17 01:21:22;;;;;;;2.63;2.15;;;20.00;68.20;;;;;;5072218;28;20020;-75
2022/05/17 01:23:48;;;;;;;3.13;2.10;;;20.00;68.30;;;;;;5072071;28;20363;-75
2022/05/17 01:26:20;;;;;;;3.08;2.20;;;20.00;68.40;;;;;;5072253;28;20032;-75
2022/05/17 01:28:47;;;;;;;3.17;1.73;;;20.00;68.30;;;;;;5072110;28;20088;-76
2022/05/17 01:31:12;;;;;;;5.10;1.90;;;20.00;68.30;;;;;;5072454;28;20095;-75
2022/05/17 01:33:39;;;;;;;4.15;2.00;;;20.00;68.30;;;;;;5072130;28;20437;-75
2022/05/17 01:36:08;;;;;;;5.32;2.22;;;19.90;68.20;;;;;;5072092;28;20028;-76
2022/05/17 01:38:34;;;;;;;3.33;2.10;;;19.90;68.30;;;;;;5055923;28;20021;-76
2022/05/17 01:41:00;;;;;;;3.80;2.42;;;19.90;68.30;;;;;;5034393;28;20436;-75
2022/05/17 01:43:27;;;;;;;4.75;1.73;;;19.90;68.40;;;;;;5052404;28;20032;-76
2022/05/17 01:45:53;;;;;;;4.70;1.80;;;19.90;68.30;;;;;;5055590;28;20386;-74
2022/05/17 01:48:19;;;;;;;2.88;1.50;;;19.90;68.50;;;;;;5052170;28;20021;-75
2022/05/17 01:50:45;;;;;;;2.58;1.40;;;19.90;68.30;;;;;;5051965;28;20017;-75
2022/05/17 01:53:12;;;;;;;3.65;2.08;;;19.90;68.30;;;;;;5051940;28;20075;-75
2022/05/17 01:55:38;;;;;;;2.67;1.48;;;19.90;68.60;;;;;;5047945;28;20031;-75
2022/05/17 01:58:05;;;;;;;3.47;1.60;;;19.90;68.60;;;;;;5053685;28;20182;-75
2022/05/17 02:00:31;;;;;;;3.08;1.90;;;20.00;68.80;;;;;;5071952;28;20165;-75
2022/05/17 02:02:57;;;;;;;2.83;2.13;;;20.00;68.90;;;;;;5071795;28;20031;-75
2022/05/17 02:05:25;;;;;;;2.92;2.08;;;20.00;69.00;;;;;;5053903;28;20020;-76
2022/05/17 02:07:51;;;;;;;3.08;2.20;;;20.10;69.20;;;;;;5072131;28;20005;-76
2022/05/17 02:10:19;;;;;;;4.40;2.33;;;20.10;69.10;;;;;;5071720;28;20056;-75
2022/05/17 02:12:44;;;;;;;8.70;3.08;;;20.10;68.90;;;;;;5059294;28;20550;-76
2022/05/17 02:15:11;;;;;;;3.83;1.98;;;20.10;68.70;;;;;;5055763;28;20112;-75
2022/05/17 02:17:38;;;;;;;3.97;2.13;;;20.20;68.80;;;;;;5055744;28;20027;-75
2022/05/17 02:20:06;;;;;;;6.35;2.65;;;20.20;68.50;;;;;;5055713;28;20428;-75
2022/05/17 02:22:32;;;;;;;4.25;2.67;;;20.20;68.50;;;;;;5055638;28;20032;-75
2022/05/17 02:24:58;;;;;;;5.18;2.10;;;20.20;68.30;;;;;;5055496;28;20447;-76
2022/05/17 02:27:23;;;;;;;6.00;2.65;;;20.20;68.20;;;;;;5055504;28;20055;-75
2022/05/17 02:29:49;;;;;;;5.60;2.30;;;20.20;68.20;;;;;;5040665;28;20027;-75
2022/05/17 02:32:16;;;;;;;5.55;1.90;;;20.20;68.50;;;;;;5055343;28;20028;-75
2022/05/17 02:34:43;;;;;;;7.95;2.40;;;20.30;68.60;;;;;;5055297;28;20025;-75
2022/05/17 02:37:09;;;;;;;2.88;1.70;;;20.30;67.90;;;;;;5055308;28;20017;-75
2022/05/17 02:39:35;;;;;;;3.90;1.92;;;20.30;67.90;;;;;;5037327;28;20040;-75
2022/05/17 02:42:01;;;;;;;3.55;1.75;;;20.30;68.20;;;;;;5055054;28;20020;-75
2022/05/17 02:44:28;;;;;;;4.05;1.80;;;20.30;68.00;;;;;;5055161;28;20104;-75
2022/05/17 02:46:55;;;;;;;3.83;1.80;;;20.30;68.20;;;;;;5057882;28;20021;-75
2022/05/17 02:49:21;;;;;;;2.25;1.65;;;20.30;68.50;;;;;;5074971;28;20103;-75
2022/05/17 02:51:46;;;;;;;2.15;1.50;;;20.30;68.50;;;;;;5074934;28;20075;-75
2022/05/17 02:54:12;;;;;;;32.97;4.80;;;20.30;68.40;;;;;;5074853;28;20694;-75
2022/05/17 02:56:39;;;;;;;7.72;1.60;;;20.30;68.50;;;;;;5070065;28;20028;-75
2022/05/17 02:59:06;;;;;;;3.70;1.85;;;20.30;68.60;;;;;;5074854;28;20578;-75
2022/05/17 03:01:32;;;;;;;2.50;1.40;;;20.30;68.40;;;;;;5056939;28;20033;-75
2022/05/17 03:03:58;;;;;;;7.45;1.65;;;20.30;68.20;;;;;;5071279;28;20027;-75
2022/05/17 03:06:24;;;;;;;1.60;1.40;;;20.30;68.30;;;;;;5054177;28;20036;-74
2022/05/17 03:08:50;;;;;;;2.67;1.50;;;20.40;68.40;;;;;;5053330;28;20021;-74
2022/05/17 03:11:16;;;;;;;4.50;1.42;;;20.40;68.80;;;;;;5053249;28;20052;-74
2022/05/17 03:13:42;;;;;;;4.32;1.67;;;20.40;68.80;;;;;;5054032;28;20029;-75
2022/05/17 03:16:08;;;;;;;6.03;2.20;;;20.40;68.70;;;;;;5057574;28;20025;-74
2022/05/17 03:18:33;;;;;;;5.25;2.00;;;20.30;68.70;;;;;;5054616;28;20112;-75
2022/05/17 03:20:59;;;;;;;5.68;1.70;;;20.40;68.90;;;;;;5036618;28;20032;-74
2022/05/17 03:23:25;;;;;;;3.17;1.95;;;20.40;68.80;;;;;;5053379;28;20107;-75
2022/05/17 03:25:51;;;;;;;7.25;1.85;;;20.40;69.00;;;;;;5054219;28;20371;-75
2022/05/17 03:28:16;;;;;;;2.83;1.45;;;20.40;68.80;;;;;;5054461;28;20097;-74
2022/05/17 03:30:43;;;;;;;1.85;1.40;;;20.40;68.90;;;;;;5054351;28;20021;-74
2022/05/17 03:33:09;;;;;;;2.90;1.58;;;20.40;69.00;;;;;;5054066;28;20075;-74
2022/05/17 03:35:36;;;;;;;5.35;2.15;;;20.40;68.80;;;;;;5055370;28;20536;-74
2022/05/17 03:38:02;;;;;;;4.63;2.15;;;20.40;68.90;;;;;;5074250;28;20032;-74
2022/05/17 03:40:29;;;;;;;3.30;1.90;;;20.40;69.10;;;;;;5074012;28;20052;-74
2022/05/17 03:42:54;;;;;;;6.97;2.33;;;20.40;69.00;;;;;;5074276;28;20359;-74
2022/05/17 03:45:20;;;;;;;5.93;2.03;;;20.40;68.80;;;;;;5074032;28;20027;-74
2022/05/17 03:47:46;;;;;;;2.42;1.63;;;20.40;68.90;;;;;;5074045;28;20021;-74
2022/05/17 03:50:13;;;;;;;4.60;1.80;;;20.40;68.80;;;;;;5056042;28;20040;-74
2022/05/17 03:52:39;;;;;;;4.10;2.10;;;20.50;69.20;;;;;;5073791;28;20067;-74
2022/05/17 03:55:07;;;;;;;2.45;1.70;;;20.50;69.00;;;;;;5073933;28;20025;-74
2022/05/17 03:57:34;;;;;;;5.50;2.22;;;20.50;68.80;;;;;;5073783;28;20027;-74
2022/05/17 04:00:00;;;;;;;3.33;1.98;;;20.50;68.90;;;;;;5073639;28;20097;-74
2022/05/17 04:02:26;;;;;;;4.30;1.90;;;20.40;68.90;;;;;;5073666;28;20029;-74
2022/05/17 04:04:53;;;;;;;1.92;1.80;;;20.50;69.00;;;;;;5073703;28;20486;-74
2022/05/17 04:07:19;;;;;;;1.83;1.50;;;20.50;69.30;;;;;;5073571;28;20063;-74
2022/05/17 04:09:45;;;;;;;4.05;1.85;;;20.50;69.00;;;;;;5073545;28;20020;-74
2022/05/17 04:12:11;;;;;;;4.05;2.00;;;20.50;68.60;;;;;;5073516;28;20028;-74
2022/05/17 04:14:37;;;;;;;5.07;2.33;;;20.50;68.90;;;;;;5073420;28;20413;-74
2022/05/17 04:17:04;;;;;;;7.07;2.40;;;20.60;68.70;;;;;;5055427;28;20025;-74
2022/05/17 04:19:29;;;;;;;3.10;1.80;;;20.60;68.80;;;;;;5055414;28;20037;-74
2022/05/17 04:21:58;;;;;;;2.53;2.00;;;20.60;69.10;;;;;;5073303;28;20027;-74
2022/05/17 04:24:24;;;;;;;3.63;2.13;;;20.60;69.00;;;;;;5073214;28;20024;-74
2022/05/17 04:26:50;;;;;;;3.15;1.70;;;20.60;68.70;;;;;;5055301;28;20035;-74
2022/05/17 04:29:15;;;;;;;4.40;1.98;;;20.60;68.50;;;;;;5073133;28;20417;-74
2022/05/17 04:31:41;;;;;;;3.20;2.10;;;20.60;68.90;;;;;;5073114;28;20071;-74
2022/05/17 04:34:07;;;;;;;4.57;2.13;;;20.60;68.70;;;;;;5072991;28;20054;-74
2022/05/17 04:36:33;;;;;;;4.03;2.58;;;20.60;68.70;;;;;;5072646;28;20032;-74
2022/05/17 04:39:00;;;;;;;8.52;3.10;;;20.60;68.80;;;;;;5073092;28;20507;-74
2022/05/17 04:41:26;;;;;;;5.78;2.60;;;20.60;68.30;;;;;;5072865;28;20099;-74
2022/05/17 04:43:52;;;;;;;4.93;2.70;;;20.60;68.20;;;;;;5072857;28;20230;-74
2022/05/17 04:46:18;;;;;;;4.05;2.15;;;20.60;68.20;;;;;;5054921;28;20032;-74
2022/05/17 04:48:43;;;;;;;4.93;2.85;;;20.60;68.40;;;;;;5072787;28;20016;-73
2022/05/17 04:51:11;;;;;;;3.58;2.65;;;20.60;68.80;;;;;;5072666;28;20383;-73
2022/05/17 04:53:37;;;;;;;3.60;2.85;;;20.60;68.60;;;;;;5054823;28;20024;-74
2022/05/17 04:56:05;;;;;;;7.13;3.05;;;20.60;68.40;;;;;;5072744;28;20052;-73
2022/05/17 04:58:31;;;;;;;7.53;2.85;;;20.60;68.40;;;;;;5069916;28;20429;-73
2022/05/17 05:00:57;;;;;;;8.30;2.78;;;20.70;68.30;;;;;;5072669;28;20029;-73
2022/05/17 05:03:23;;;;;;;3.83;2.42;;;20.70;68.70;;;;;;5072594;28;20107;-73
2022/05/17 05:05:49;;;;;;;4.28;2.80;;;20.60;68.60;;;;;;5054714;28;20561;-74
2022/05/17 05:08:14;;;;;;;5.90;2.63;;;20.70;68.50;;;;;;5054555;28;20024;-73
2022/05/17 05:10:42;;;;;;;2.92;2.30;;;20.70;68.20;;;;;;5072578;28;20021;-73
2022/05/17 05:13:14;;;;;;;5.05;2.88;;;20.70;68.80;;;;;;5072489;28;20016;-74
2022/05/17 05:15:40;;;;;;;5.93;2.50;;;20.70;69.00;;;;;;5057952;28;20083;-73
2022/05/17 05:18:06;;;;;;;5.57;2.70;;;20.70;68.90;;;;;;5052473;28;20017;-73
2022/05/17 05:20:32;;;;;;;10.35;3.20;;;20.70;68.90;;;;;;5052446;28;20044;-74
2022/05/17 05:22:58;;;;;;;3.00;2.50;;;20.80;68.90;;;;;;5034446;28;20021;-73
2022/05/17 05:25:24;;;;;;;6.32;2.70;;;20.80;68.60;;;;;;5034507;28;20025;-73
2022/05/17 05:27:50;;;;;;;4.07;2.58;;;20.80;68.40;;;;;;5052452;28;20097;-73
2022/05/17 05:30:16;;;;;;;5.25;3.03;;;20.80;68.70;;;;;;5034514;28;20116;-74
2022/05/17 05:32:46;;;;;;;6.65;3.20;;;20.80;68.70;;;;;;5034174;28;20047;-73
2022/05/17 05:35:18;;;;;;;6.63;3.88;;;20.80;68.70;;;;;;5068374;28;20377;-74
2022/05/17 05:37:44;;;;;;;5.43;3.22;;;20.80;68.50;;;;;;5054019;28;20035;-74
2022/05/17 05:40:11;;;;;;;6.35;3.22;;;20.80;68.60;;;;;;5072176;28;20025;-74
2022/05/17 05:42:39;;;;;;;5.63;3.63;;;20.80;68.70;;;;;;5053659;28;20029;-74
2022/05/17 05:45:06;;;;;;;5.40;3.42;;;20.80;69.10;;;;;;5053870;28;20108;-74
2022/05/17 05:47:32;;;;;;;4.80;3.92;;;20.70;69.50;;;;;;5073750;28;20039;-75
2022/05/17 05:49:57;;;;;;;6.70;4.20;;;20.70;69.40;;;;;;5069495;28;20092;-75
2022/05/17 05:52:23;;;;;;;7.03;3.63;;;20.60;70.10;;;;;;5055919;28;20025;-76
2022/05/17 05:54:49;;;;;;;8.10;4.15;;;20.60;70.10;;;;;;5055992;28;20028;-76
2022/05/17 05:57:15;;;;;;;13.18;4.22;;;20.50;70.10;;;;;;5056076;28;20024;-76
2022/05/17 05:59:41;;;;;;;6.45;3.90;;;20.50;70.70;;;;;;5055559;28;20053;-76
2022/05/17 06:02:08;;;;;;;8.55;3.80;;;20.40;70.70;;;;;;5038086;28;20033;-76
2022/05/17 06:04:35;;;;;;;6.85;4.05;;;20.50;70.90;;;;;;5056106;28;20095;-76
2022/05/17 06:07:01;;;;;;;9.98;4.32;;;20.40;71.10;;;;;;5055644;28;20028;-76
2022/05/17 06:09:28;;;;;;;13.63;5.10;;;20.40;71.10;;;;;;5055824;28;20056;-75
2022/05/17 06:11:55;;;;;;;7.30;4.10;;;20.40;71.30;;;;;;5056128;28;20047;-76
2022/05/17 06:14:21;;;;;;;7.00;4.78;;;20.40;71.10;;;;;;5055598;28;20082;-76
2022/05/17 06:16:51;;;;;;;5.40;4.68;;;20.50;71.10;;;;;;5055667;28;20033;-76
2022/05/17 06:19:17;;;;;;;9.80;4.55;;;20.50;70.80;;;;;;5055746;28;20035;-76
2022/05/17 06:21:43;;;;;;;5.90;4.60;;;20.40;70.80;;;;;;5055592;28;20104;-76
2022/05/17 06:24:10;;;;;;;8.07;4.70;;;20.40;70.60;;;;;;5055565;28;20493;-76
2022/05/17 06:26:36;;;;;;;4.93;3.60;;;20.40;70.20;;;;;;5056006;28;20509;-76
2022/05/17 06:29:03;;;;;;;6.22;3.72;;;20.40;70.50;;;;;;5073197;28;20021;-75
2022/05/17 06:31:30;;;;;;;8.32;5.20;;;20.40;70.70;;;;;;5075364;28;20051;-75
2022/05/17 06:33:56;;;;;;;8.38;5.20;;;20.40;70.80;;;;;;5075372;28;20363;-75
2022/05/17 06:36:22;;;;;;;7.43;5.03;;;20.40;70.50;;;;;;5057606;28;20146;-76
2022/05/17 06:38:48;;;;;;;7.95;4.72;;;20.40;70.10;;;;;;5075231;28;20082;-76
2022/05/17 06:41:14;;;;;;;6.30;4.35;;;20.40;70.00;;;;;;5074943;28;20025;-76
2022/05/17 06:43:39;;;;;;;6.22;4.05;;;20.40;69.90;;;;;;5074956;28;20496;-76
2022/05/17 06:46:05;;;;;;;9.23;4.97;;;20.40;70.20;;;;;;5075022;28;20490;-76
2022/05/17 06:48:31;;;;;;;7.50;4.95;;;20.40;70.40;;;;;;5074897;28;20052;-76
2022/05/17 06:51:05;;;;;;;8.35;5.60;;;20.40;70.60;;;;;;5074948;28;20016;-76
2022/05/17 06:53:31;;;;;;;9.75;5.95;;;20.40;70.40;;;;;;5075385;28;20024;-76
2022/05/17 06:55:58;;;;;;;8.15;4.28;;;20.50;70.60;;;;;;5057062;28;20040;-77
2022/05/17 06:58:24;;;;;;;7.50;5.05;;;20.50;70.50;;;;;;5064093;28;20441;-76
2022/05/17 07:00:50;;;;;;;6.60;4.55;;;20.50;70.50;;;;;;5054952;28;20032;-77
2022/05/17 07:03:16;;;;;;;5.93;4.63;;;20.50;70.60;;;;;;5054883;28;20382;-76
2022/05/17 07:05:42;;;;;;;7.15;4.40;;;20.50;70.40;;;;;;5054936;28;20090;-76
2022/05/17 07:08:07;;;;;;;15.52;5.53;;;20.40;70.40;;;;;;5054904;28;20087;-76
2022/05/17 07:13:23;;;;;;;8.98;5.40;;;20.40;69.90;;;;;;5053934;28;20039;-77
2022/05/17 07:15:51;;;;;;;7.03;4.68;;;20.40;70.00;;;;;;5065428;28;20027;-76
2022/05/17 07:18:21;;;;;;;10.25;5.05;;;20.40;70.20;;;;;;5074706;28;20024;-76
2022/05/17 07:20:47;;;;;;;7.38;5.30;;;20.40;70.60;;;;;;5074601;28;20028;-76
2022/05/17 07:23:14;;;;;;;7.95;5.63;;;20.40;70.70;;;;;;5056517;28;20382;-76
2022/05/17 07:25:41;;;;;;;9.52;5.50;;;20.40;70.70;;;;;;5056921;28;20016;-76
2022/05/17 07:28:08;;;;;;;6.72;4.85;;;20.50;70.80;;;;;;5074405;28;20020;-76
2022/05/17 07:30:34;;;;;;;6.03;4.90;;;20.50;71.00;;;;;;5074929;28;20099;-76
2022/05/17 07:32:59;;;;;;;9.90;5.82;;;20.60;70.70;;;;;;5074343;28;20470;-76
2022/05/17 07:35:25;;;;;;;8.88;5.45;;;20.60;70.70;;;;;;5068552;28;20107;-76
2022/05/17 07:37:51;;;;;;;14.98;6.45;;;20.60;70.60;;;;;;5074247;28;20095;-76
2022/05/17 07:40:18;;;;;;;10.00;6.07;;;20.70;70.50;;;;;;5056288;28;20115;-76
2022/05/17 07:42:45;;;;;;;7.95;5.80;;;20.70;70.50;;;;;;5073893;28;20021;-76
2022/05/17 07:45:12;;;;;;;8.02;5.25;;;20.80;70.60;;;;;;5056124;28;20063;-76
2022/05/17 07:47:38;;;;;;;7.30;5.65;;;20.80;70.50;;;;;;5073961;28;20009;-76
2022/05/17 07:50:05;;;;;;;7.72;5.18;;;20.90;70.30;;;;;;5074058;28;20504;-76
2022/05/17 07:52:31;;;;;;;9.85;5.47;;;20.90;69.90;;;;;;5057690;28;20347;-76
2022/05/17 07:54:57;;;;;;;11.63;6.68;;;20.90;69.30;;;;;;5054436;28;20157;-76
2022/05/17 07:57:23;;;;;;;9.65;5.85;;;21.00;68.60;;;;;;5053933;28;20075;-76
2022/05/17 07:59:49;;;;;;;10.32;6.07;;;20.90;68.20;;;;;;5053696;28;20078;-76
2022/05/17 08:02:15;;;;;;;11.02;6.40;;;20.90;68.20;;;;;;5053852;28;20029;-76
2022/05/17 08:04:41;;;;;;;8.98;5.90;;;20.90;68.40;;;;;;5035948;28;20344;-76
2022/05/17 08:07:08;;;;;;;7.93;5.40;;;20.90;68.90;;;;;;5053839;28;20032;-76
2022/05/17 08:09:35;;;;;;;10.20;6.28;;;20.90;69.40;;;;;;5053045;28;20017;-77
2022/05/17 08:12:02;;;;;;;11.10;6.18;;;20.90;69.60;;;;;;5053759;28;20021;-76
2022/05/17 08:14:31;;;;;;;10.73;5.55;;;20.90;70.00;;;;;;5053607;28;20017;-76
2022/05/17 08:16:57;;;;;;;7.78;5.47;;;21.00;70.10;;;;;;5035552;28;20114;-75
2022/05/17 08:19:23;;;;;;;9.27;5.50;;;21.00;70.00;;;;;;5070028;28;20489;-75
2022/05/17 08:21:48;;;;;;;8.00;5.93;;;21.00;69.30;;;;;;5073427;28;20106;-75
2022/05/17 08:24:14;;;;;;;9.13;5.35;;;21.00;69.00;;;;;;5073167;28;20025;-76
2022/05/17 08:29:24;;;;;;;;;;;21.00;69.50;;;;;;5073313;28;20444;-76
2022/05/17 08:34:34;;;;;;;7.80;5.20;;;21.10;69.50;;;;;;5073332;28;20035;-76
2022/05/17 08:37:00;;;;;;;9.70;5.07;;;21.00;69.00;;;;;;5055137;28;20040;-76
2022/05/17 08:39:26;;;;;;;9.27;5.80;;;21.00;69.50;;;;;;5055117;28;20486;-76
2022/05/17 08:42:00;;;;;;;10.88;6.50;;;21.00;69.90;;;;;;5073020;28;20402;-76
2022/05/17 08:44:48;;;;;;;10.48;6.50;;;21.00;69.80;;;;;;5070047;28;20385;-76
2022/05/17 08:47:30;;;;;;;8.95;6.00;;;21.00;69.70;;;;;;5053026;28;20025;-76
2022/05/17 08:50:00;;;;;;;12.45;6.40;;;21.00;69.80;;;;;;5035079;28;20090;-76
2022/05/17 08:52:27;;;;;;;8.23;6.47;;;21.10;70.60;;;;;;5052883;28;20033;-76
2022/05/17 08:55:05;;;;;;;10.32;6.32;;;21.20;70.60;;;;;;5052795;28;20024;-76
2022/05/17 08:57:33;;;;;;;9.30;6.75;;;21.30;70.50;;;;;;5052835;28;20482;-76
2022/05/17 09:00:08;;;;;;;8.10;5.72;;;21.40;70.40;;;;;;5052700;28;20068;-76
2022/05/17 09:02:43;;;;;;;14.73;6.60;;;21.40;70.20;;;;;;5052430;28;20033;-76
2022/05/17 09:05:24;;;;;;;6.72;5.63;;;21.50;69.40;;;;;;5052604;28;20094;-76
2022/05/17 09:08:07;;;;;;;6.63;5.03;;;21.60;69.90;;;;;;5063691;28;20025;-76
2022/05/17 09:10:44;;;;;;;8.10;5.10;;;21.70;70.60;;;;;;5071794;28;20038;-76
2022/05/17 09:13:24;;;;;;;7.80;5.25;;;21.70;69.50;;;;;;5066151;28;20024;-76
2022/05/17 09:15:59;;;;;;;8.40;5.93;;;21.70;68.90;;;;;;5071886;28;20021;-76
2022/05/17 09:18:26;;;;;;;9.43;6.10;;;21.80;68.40;;;;;;5055410;28;20092;-76
2022/05/17 09:20:52;;;;;;;8.18;5.20;;;21.80;67.80;;;;;;5051798;28;20021;-76
2022/05/17 09:23:18;;;;;;;7.65;5.35;;;21.80;67.80;;;;;;5064788;28;20029;-75
2022/05/17 09:25:49;;;;;;;6.30;5.28;;;21.80;67.60;;;;;;5056668;28;20028;-75
2022/05/17 09:28:23;;;;;;;10.13;5.10;;;21.80;67.80;;;;;;5070919;28;20016;-75
2022/05/17 09:31:11;;;;;;;6.82;4.90;;;21.80;67.80;;;;;;5055534;28;20028;-75
2022/05/17 09:33:41;;;;;;;10.35;6.53;;;21.80;68.00;;;;;;5052357;28;20021;-75
2022/05/17 09:36:13;;;;;;;17.27;6.82;;;21.80;66.90;;;;;;5051906;28;20501;-75
2022/05/17 09:38:39;;;;;;;12.85;6.57;;;21.90;66.80;;;;;;5064265;28;20107;-75
2022/05/17 09:41:12;;;;;;;10.50;5.47;;;21.90;67.20;;;;;;5069344;28;20024;-74
2022/05/17 09:43:40;;;;;;;9.63;5.40;;;22.00;67.70;;;;;;5062746;28;20040;-74
2022/05/17 09:46:17;;;;;;;8.85;5.55;;;22.10;67.60;;;;;;5066519;28;20020;-74
2022/05/17 09:54:46;;;;;;;7.80;5.32;;;22.40;66.40;;;;;;5061767;28;20162;-74
2022/05/17 09:57:22;;;;;;;9.27;5.22;;;22.50;65.10;;;;;;5072276;28;20394;-74
2022/05/17 09:59:52;;;;;;;9.65;4.85;;;22.60;64.90;;;;;;5061985;28;20061;-74
2022/05/17 10:02:29;;;;;;;5.97;4.93;;;22.60;65.50;;;;;;5052910;28;20028;-74
2022/05/17 10:05:00;;;;;;;6.40;5.18;;;22.60;65.20;;;;;;5052336;28;20025;-74
2022/05/17 10:07:30;;;;;;;6.53;5.25;;;22.60;64.60;;;;;;5065787;28;20474;-74
2022/05/17 10:09:56;;;;;;;7.47;5.65;;;22.60;64.40;;;;;;5070409;28;20501;-73
2022/05/17 10:12:44;;;;;;;10.50;6.43;;;22.50;63.80;;;;;;5047130;28;20048;-74
2022/05/17 10:15:11;;;;;;;9.57;6.50;;;22.50;63.80;;;;;;5051501;28;20027;-73
2022/05/17 10:17:49;;;;;;;10.98;6.15;;;22.40;63.60;;;;;;5055288;28;20075;-73
2022/05/17 10:20:29;;;;;;;7.18;5.43;;;22.40;64.00;;;;;;5071071;28;20074;-73
2022/05/17 10:23:15;;;;;;;8.48;5.85;;;22.40;65.20;;;;;;5067631;28;20087;-74
2022/05/17 10:25:47;;;;;;;8.23;5.72;;;22.50;66.50;;;;;;5065363;28;20491;-74
2022/05/17 10:28:38;;;;;;;8.52;6.45;;;22.60;66.40;;;;;;5058951;28;20025;-74
2022/05/17 10:31:21;;;;;;;11.60;7.40;;;22.80;66.70;;;;;;5059597;28;20043;-73
2022/05/17 10:34:05;;;;;;;10.07;7.80;;;23.10;67.50;;;;;;5063208;28;20028;-73
2022/05/17 10:36:39;;;;;;;11.15;7.25;;;23.40;66.00;;;;;;5067649;28;20100;-73
2022/05/17 10:39:31;;;;;;;8.23;6.63;;;23.60;65.00;;;;;;5067527;28;20050;-73
2022/05/17 10:41:57;;;;;;;10.77;7.70;;;23.80;64.40;;;;;;5047969;28;20060;-72
2022/05/17 10:44:37;;;;;;;10.50;7.47;;;24.00;62.40;;;;;;5063811;28;20500;-73
2022/05/17 10:47:16;;;;;;;8.95;7.88;;;24.10;62.70;;;;;;5075453;28;20074;-73
2022/05/17 10:50:13;;;;;;;9.05;7.07;;;24.10;60.20;;;;;;5075212;28;20039;-73
2022/05/17 10:52:50;;;;;;;11.57;7.72;;;24.20;61.40;;;;;;5065171;28;20025;-74
2022/05/17 10:55:25;;;;;;;9.60;7.63;;;24.20;62.10;;;;;;5054251;28;20040;-73
2022/05/17 10:57:58;;;;;;;16.02;8.40;;;24.40;61.80;;;;;;5037488;28;20443;-74
2022/05/17 11:00:39;;;;;;;11.48;8.57;;;24.30;59.20;;;;;;5062851;28;20389;-74
2022/05/17 11:03:44;;;;;;;9.70;7.88;;;24.30;60.60;;;;;;5074916;28;20031;-74
2022/05/17 11:06:18;;;;;;;;;;;24.30;60.40;;;;;;5043012;28;20029;-74
2022/05/17 11:09:09;;;;;;;9.15;7.55;;;24.40;61.50;;;;;;5048781;28;19955;-74
2022/05/17 11:11:55;;;;;;;14.48;8.02;;;24.40;60.40;;;;;;5060954;28;20074;-74
2022/05/17 11:14:35;;;;;;;7.53;6.47;;;24.40;60.00;;;;;;5075037;28;20035;-74
2022/05/17 11:17:14;;;;;;;14.63;7.68;;;24.50;60.20;;;;;;5066464;28;20071;-74
2022/05/17 11:19:47;;;;;;;12.60;8.02;;;24.60;60.00;;;;;;5040425;28;20040;-74
2022/05/17 11:22:26;;;;;;;13.35;7.78;;;24.70;60.40;;;;;;5054781;28;20032;-74
2022/05/17 11:24:58;;;;;;;11.88;6.30;;;24.80;59.10;;;;;;5072670;28;20027;-73
2022/05/17 11:27:45;;;;;;;11.25;7.38;;;24.90;61.20;;;;;;5042067;28;20013;-74
2022/05/17 11:30:24;;;;;;;8.88;5.95;;;25.10;60.20;;;;;;5057608;28;20029;-74
2022/05/17 11:33:24;;;;;;;7.15;5.68;;;25.20;59.10;;;;;;5064937;28;20490;-74
2022/05/17 11:35:57;;;;;;;7.18;5.45;;;25.40;59.40;;;;;;5058695;28;20039;-74
2022/05/17 11:38:31;;;;;;;6.87;5.10;;;25.60;59.30;;;;;;5062329;28;20021;-73
2022/05/17 11:41:13;;;;;;;15.60;4.60;;;25.70;58.40;;;;;;5058247;28;20028;-73
2022/05/17 11:43:59;;;;;;;8.18;5.00;;;25.80;59.00;;;;;;5055591;28;20493;-74
2022/05/17 11:46:25;;;;;;;8.30;4.25;;;26.00;59.40;;;;;;5047415;28;20039;-73
2022/05/17 11:48:55;;;;;;;8.82;3.65;;;26.00;56.10;;;;;;5064045;28;20021;-73
2022/05/17 11:51:23;;;;;;;6.13;3.95;;;26.00;54.30;;;;;;5071061;28;20450;-73
2022/05/17 11:53:52;;;;;;;7.57;4.05;;;26.00;53.40;;;;;;5072061;28;20084;-73
2022/05/17 11:56:24;;;;;;;6.25;3.85;;;25.90;53.60;;;;;;5060709;28;20025;-73
2022/05/17 11:58:52;;;;;;;6.88;3.70;;;25.80;51.90;;;;;;5058561;28;20044;-73
2022/05/17 12:01:30;;;;;;;6.88;2.85;;;25.80;51.70;;;;;;5071233;28;20036;-73
2022/05/17 12:04:15;;;;;;;5.53;3.60;;;25.80;53.50;;;;;;5062687;28;20549;-74
2022/05/17 12:07:04;;;;;;;6.60;3.22;;;25.90;51.90;;;;;;5073844;28;20032;-74
2022/05/17 12:09:36;;;;;;;4.88;3.38;;;25.90;52.70;;;;;;5074015;28;20027;-74
2022/05/17 12:12:16;;;;;;;11.77;4.05;;;26.00;51.30;;;;;;5069098;28;20434;-74
2022/05/17 12:15:01;;;;;;;4.43;3.10;;;26.00;49.20;;;;;;5055760;28;20021;-74
2022/05/17 12:17:46;;;;;;;6.68;3.10;;;26.10;51.50;;;;;;5073509;28;20048;-74
2022/05/17 12:21:06;;;;;;;8.20;3.70;;;26.20;49.50;;;;;;5073899;28;20070;-72
2022/05/17 12:23:44;;;;;;;8.68;3.17;;;26.20;50.40;;;;;;4972573;28;20043;-74
2022/05/17 12:26:28;;;;;;;9.13;3.42;;;26.30;47.40;;;;;;4972513;28;20456;-74
2022/05/17 12:28:54;;;;;;;;;;;26.30;47.70;;;;;;5024179;28;20470;-74
2022/05/17 12:31:26;;;;;;;6.85;3.40;;;26.30;50.40;;;;;;5073305;28;19910;-74
2022/05/17 12:33:54;;;;;;;4.38;2.80;;;26.30;46.80;;;;;;5073248;28;20012;-74
2022/05/17 12:36:26;;;;;;;7.97;3.38;;;26.20;46.80;;;;;;5073363;28;20025;-74
2022/05/17 12:44:54;;;;;;;6.72;3.33;;;26.40;50.20;;;;;;5073230;28;20469;-74
2022/05/17 12:47:37;;;;;;;8.68;3.42;;;26.50;49.50;;;;;;5072976;28;20024;-74
2022/05/17 12:50:04;;;;;;;5.90;3.08;;;26.50;48.40;;;;;;5073132;28;20025;-73
2022/05/17 12:52:41;;;;;;;5.03;3.20;;;26.50;47.80;;;;;;5072954;28;20432;-74
2022/05/17 12:55:30;;;;;;;16.08;3.03;;;26.50;48.30;;;;;;5073111;28;20055;-74
2022/05/17 12:58:10;;;;;;;7.93;3.58;;;26.40;48.20;;;;;;5072589;28;20079;-75
2022/05/17 13:00:36;;;;;;;5.03;2.80;;;26.50;48.60;;;;;;5072794;28;20430;-73
2022/05/17 13:03:18;;;;;;;3.70;3.10;;;26.60;48.70;;;;;;5054823;28;20028;-73
2022/05/17 13:05:48;;;;;;;8.45;2.95;;;26.60;47.80;;;;;;5073025;28;20405;-73
2022/05/17 13:08:37;;;;;;;6.03;3.25;;;26.70;48.50;;;;;;5054844;28;20029;-74
2022/05/17 13:11:18;;;;;;;6.72;3.08;;;26.80;47.00;;;;;;5072829;28;20021;-74
2022/05/17 13:13:44;;;;;;;7.55;3.15;;;26.90;47.30;;;;;;5072832;28;20021;-73
2022/05/17 13:16:36;;;;;;;3.92;2.83;;;26.90;47.70;;;;;;5072786;28;20039;-74
2022/05/17 13:19:04;;;;;;;5.32;2.53;;;27.10;45.40;;;;;;5072454;28;20445;-74
2022/05/17 13:21:41;;;;;;;3.42;2.90;;;27.10;46.30;;;;;;5072677;28;20389;-74
2022/05/17 13:24:34;;;;;;;6.90;2.53;;;27.20;45.80;;;;;;5039668;28;20056;-73